createdAt,value
2017-09-14T00:00:33.940Z,0
2017-09-14T00:01:19.670Z,0
2017-09-14T00:02:19.661Z,0
2017-09-14T00:03:19.740Z,0
2017-09-14T00:04:34.013Z,0
2017-09-14T00:05:19.717Z,0
2017-09-14T00:06:19.755Z,0
2017-09-14T00:07:19.769Z,0
2017-09-14T00:08:34.424Z,0
2017-09-14T00:09:34.435Z,0
2017-09-14T00:10:19.877Z,0
2017-09-14T00:12:19.878Z,0
2017-09-14T00:13:19.926Z,0
2017-09-14T00:14:19.936Z,0
2017-09-14T00:16:19.959Z,0
2017-09-14T00:17:20.007Z,0
2017-09-14T00:18:19.715Z,0
2017-09-14T00:19:20.040Z,0
2017-09-14T00:20:20.047Z,0
2017-09-14T00:21:19.777Z,0
2017-09-14T00:22:20.105Z,0
2017-09-14T00:23:20.135Z,0
2017-09-14T00:24:20.151Z,0
2017-09-14T00:25:34.799Z,0
2017-09-14T00:26:19.874Z,0
2017-09-14T00:27:20.215Z,0
2017-09-14T00:28:34.840Z,0
2017-09-14T00:30:34.571Z,0
2017-09-14T00:31:19.978Z,0
2017-09-14T00:32:34.320Z,0
2017-09-14T00:33:20.340Z,0
2017-09-14T00:34:20.358Z,0
2017-09-14T00:35:35.007Z,0
2017-09-14T00:36:35.035Z,0
2017-09-14T00:37:35.047Z,0
2017-09-14T00:38:20.452Z,0
2017-09-14T00:39:20.481Z,0
2017-09-14T00:41:34.821Z,0
2017-09-14T00:42:20.231Z,0
2017-09-14T00:43:20.259Z,0
2017-09-14T00:44:20.274Z,0
2017-09-14T00:45:20.590Z,0
2017-09-14T00:47:20.634Z,0
2017-09-14T00:48:20.682Z,0
2017-09-14T00:49:20.736Z,0
2017-09-14T00:50:20.715Z,0
2017-09-14T00:52:35.375Z,0
2017-09-14T00:53:20.458Z,0
2017-09-14T00:54:20.793Z,0
2017-09-14T00:55:20.807Z,0
2017-09-14T00:56:35.465Z,0
2017-09-14T00:57:20.554Z,0
2017-09-14T00:58:20.879Z,0
2017-09-14T00:59:20.895Z,0
2017-09-14T01:01:20.634Z,0
2017-09-14T01:02:20.652Z,0
2017-09-14T01:03:20.679Z,0
2017-09-14T01:04:20.699Z,0
2017-09-14T01:06:35.359Z,0
2017-09-14T01:07:21.070Z,0
2017-09-14T01:08:20.797Z,0
2017-09-14T01:10:20.830Z,0
2017-09-14T01:11:21.167Z,0
2017-09-14T01:12:20.879Z,0
2017-09-14T01:13:20.576Z,0
2017-09-14T01:14:20.917Z,0
2017-09-14T01:15:20.942Z,0
2017-09-14T01:17:20.999Z,0
2017-09-14T01:18:35.927Z,0
2017-09-14T01:19:21.395Z,0
2017-09-14T01:21:21.373Z,0
2017-09-14T01:22:21.396Z,0
2017-09-14T01:23:21.418Z,0
2017-09-14T01:24:21.143Z,0
2017-09-14T01:25:20.853Z,0
2017-09-14T01:26:21.177Z,0
2017-09-14T01:27:36.124Z,0
2017-09-14T01:28:35.829Z,0
2017-09-14T01:29:36.162Z,0
2017-09-14T01:30:21.561Z,0
2017-09-14T01:31:21.598Z,0
2017-09-14T01:32:36.245Z,0
2017-09-14T01:33:21.342Z,0
2017-09-14T01:34:21.672Z,0
2017-09-14T01:35:21.683Z,0
2017-09-14T01:36:21.692Z,0
2017-09-14T01:37:36.348Z,0
2017-09-14T01:38:36.049Z,0
2017-09-14T01:39:21.466Z,0
2017-09-14T01:40:21.808Z,0
2017-09-14T01:42:21.841Z,0
2017-09-14T01:43:21.536Z,0
2017-09-14T01:44:36.494Z,0
2017-09-14T01:46:21.912Z,0
2017-09-14T01:47:21.938Z,0
2017-09-14T01:48:22.009Z,0
2017-09-14T01:49:21.991Z,0
2017-09-14T01:50:36.629Z,0
2017-09-14T01:51:22.032Z,0
2017-09-14T01:52:22.053Z,0
2017-09-14T01:53:22.067Z,0
2017-09-14T01:54:36.716Z,0
2017-09-14T01:55:21.500Z,0
2017-09-14T01:56:22.147Z,0
2017-09-14T01:57:22.163Z,0
2017-09-14T01:58:22.212Z,0
2017-09-14T01:59:22.224Z,0
2017-09-14T02:00:36.545Z,0
2017-09-14T02:01:22.258Z,0
2017-09-14T02:03:36.902Z,0
2017-09-14T02:04:21.988Z,0
2017-09-14T02:05:21.720Z,0
2017-09-14T02:06:22.356Z,0
2017-09-14T02:07:22.392Z,0
2017-09-14T02:08:22.072Z,0
2017-09-14T02:09:22.431Z,0
2017-09-14T02:10:22.436Z,0
2017-09-14T02:11:22.472Z,0
2017-09-14T02:12:22.490Z,0
2017-09-14T02:13:22.187Z,0
2017-09-14T02:14:22.204Z,0
2017-09-14T02:15:22.549Z,0
2017-09-14T02:16:36.881Z,0
2017-09-14T02:17:22.606Z,0
2017-09-14T02:18:37.238Z,0
2017-09-14T02:19:37.242Z,0
2017-09-14T02:20:22.352Z,0
2017-09-14T02:21:22.696Z,0
2017-09-14T02:22:22.687Z,0
2017-09-14T02:23:22.722Z,0
2017-09-14T02:24:22.758Z,0
2017-09-14T02:25:22.777Z,0
2017-09-14T02:26:22.797Z,0
2017-09-14T02:27:22.812Z,0
2017-09-14T02:28:22.521Z,0
2017-09-14T02:29:22.859Z,0
2017-09-14T02:30:37.499Z,0
2017-09-14T02:31:37.214Z,0
2017-09-14T02:32:22.628Z,0
2017-09-14T02:33:22.334Z,0
2017-09-14T02:34:37.261Z,0
2017-09-14T02:36:22.714Z,0
2017-09-14T02:37:37.641Z,0
2017-09-14T02:38:23.063Z,0
2017-09-14T02:39:23.121Z,0
2017-09-14T02:40:37.714Z,0
2017-09-14T02:41:22.828Z,0
2017-09-14T02:42:23.146Z,0
2017-09-14T02:43:23.165Z,0
2017-09-14T02:44:23.194Z,0
2017-09-14T02:46:23.230Z,0
2017-09-14T02:47:37.883Z,0
2017-09-14T02:48:23.281Z,0
2017-09-14T02:49:22.983Z,0
2017-09-14T02:50:37.923Z,0
2017-09-14T02:51:23.026Z,0
2017-09-14T02:52:23.045Z,0
2017-09-14T02:53:23.390Z,0
2017-09-14T02:54:23.082Z,0
2017-09-14T02:55:38.033Z,0
2017-09-14T02:56:38.072Z,0
2017-09-14T02:57:23.157Z,0
2017-09-14T02:58:38.112Z,0
2017-09-14T02:59:23.505Z,0
2017-09-14T03:00:22.903Z,0
2017-09-14T03:01:23.561Z,0
2017-09-14T03:03:38.224Z,0
2017-09-14T03:04:23.301Z,0
2017-09-14T03:05:23.330Z,0
2017-09-14T03:06:23.037Z,0
2017-09-14T03:07:23.366Z,0
2017-09-14T03:08:23.702Z,0
2017-09-14T03:09:23.726Z,0
2017-09-14T03:10:38.056Z,0
2017-09-14T03:11:23.465Z,0
2017-09-14T03:12:38.409Z,0
2017-09-14T03:13:38.445Z,0
2017-09-14T03:14:23.541Z,0
2017-09-14T03:15:38.466Z,0
2017-09-14T03:16:23.878Z,0
2017-09-14T03:17:38.532Z,0
2017-09-14T03:18:23.917Z,0
2017-09-14T03:19:38.258Z,0
2017-09-14T03:20:23.681Z,0
2017-09-14T03:21:23.976Z,0
2017-09-14T03:22:23.398Z,0
2017-09-14T03:23:24.012Z,0
2017-09-14T03:24:24.050Z,0
2017-09-14T03:25:23.760Z,0
2017-09-14T03:26:24.107Z,0
2017-09-14T03:27:24.124Z,0
2017-09-14T03:28:38.764Z,0
2017-09-14T03:29:23.843Z,0
2017-09-14T03:30:24.186Z,0
2017-09-14T03:31:38.525Z,0
2017-09-14T03:32:38.844Z,0
2017-09-14T03:33:24.257Z,0
2017-09-14T03:35:38.601Z,0
2017-09-14T03:36:24.309Z,0
2017-09-14T03:37:23.397Z,0
2017-09-14T03:38:24.045Z,0
2017-09-14T03:39:24.379Z,0
2017-09-14T03:40:24.106Z,0
2017-09-14T03:41:24.408Z,0
2017-09-14T03:42:24.502Z,0
2017-09-14T03:43:24.462Z,0
2017-09-14T03:44:39.094Z,0
2017-09-14T03:45:23.573Z,0
2017-09-14T03:46:24.219Z,0
2017-09-14T03:47:24.551Z,0
2017-09-14T03:48:24.569Z,0
2017-09-14T03:49:38.595Z,0
2017-09-14T03:50:24.677Z,0
2017-09-14T03:51:53.567Z,0
2017-09-14T03:52:24.654Z,0
2017-09-14T03:54:24.706Z,0
2017-09-14T03:55:39.355Z,0
2017-09-14T03:56:24.426Z,0
2017-09-14T03:57:24.469Z,0
2017-09-14T03:58:39.458Z,0
2017-09-14T03:59:24.494Z,0
2017-09-14T04:00:24.831Z,0
2017-09-14T04:01:24.858Z,0
2017-09-14T04:02:24.895Z,0
2017-09-14T04:03:24.892Z,0
2017-09-14T04:04:24.919Z,0
2017-09-14T04:05:24.944Z,0
2017-09-14T04:07:24.988Z,0
2017-09-14T04:08:25.028Z,0
2017-09-14T04:11:25.059Z,0
2017-09-14T04:12:39.405Z,0
2017-09-14T04:13:25.109Z,0
2017-09-14T04:14:25.144Z,0
2017-09-14T04:15:25.186Z,0
2017-09-14T04:16:25.198Z,0
2017-09-14T04:17:25.209Z,0
2017-09-14T04:18:25.222Z,0
2017-09-14T04:19:25.247Z,0
2017-09-14T04:20:25.260Z,0
2017-09-14T04:21:25.300Z,0
2017-09-14T04:22:25.312Z,0
2017-09-14T04:23:25.331Z,0
2017-09-14T04:24:25.334Z,0
2017-09-14T04:25:25.374Z,0
2017-09-14T04:26:25.443Z,0
2017-09-14T04:27:25.107Z,0
2017-09-14T04:29:25.491Z,0
2017-09-14T04:30:25.487Z,0
2017-09-14T04:31:25.501Z,0
2017-09-14T04:32:25.505Z,0
2017-09-14T04:33:25.533Z,0
2017-09-14T04:34:25.257Z,0
2017-09-14T04:35:25.272Z,0
2017-09-14T04:36:25.312Z,0
2017-09-14T04:37:25.323Z,0
2017-09-14T04:38:39.974Z,0
2017-09-14T04:39:25.360Z,0
2017-09-14T04:40:40.299Z,0
2017-09-14T04:41:25.425Z,0
2017-09-14T04:42:25.420Z,0
2017-09-14T04:43:25.451Z,0
2017-09-14T04:44:25.786Z,0
2017-09-14T04:45:25.800Z,0
2017-09-14T04:46:40.448Z,0
2017-09-14T04:47:25.853Z,0
2017-09-14T04:48:25.868Z,0
2017-09-14T04:49:25.881Z,0
2017-09-14T04:50:40.529Z,0
2017-09-14T04:51:25.947Z,0
2017-09-14T04:52:25.959Z,0
2017-09-14T04:53:25.974Z,0
2017-09-14T04:54:40.300Z,0
2017-09-14T04:55:40.312Z,0
2017-09-14T04:56:26.033Z,0
2017-09-14T04:57:26.063Z,0
2017-09-14T04:58:26.083Z,0
2017-09-14T04:59:26.101Z,5
2017-09-14T05:00:26.118Z,5
2017-09-14T05:02:40.782Z,0
2017-09-14T05:05:25.920Z,0
2017-09-14T05:06:40.574Z,0
2017-09-14T05:07:25.972Z,0
2017-09-14T05:08:25.986Z,5
2017-09-14T05:09:40.939Z,5
2017-09-14T05:10:55.580Z,5
2017-09-14T05:11:26.373Z,0
2017-09-14T05:12:26.080Z,0
2017-09-14T05:13:26.090Z,0
2017-09-14T05:14:26.164Z,0
2017-09-14T05:15:26.152Z,5
2017-09-14T05:16:40.784Z,5
2017-09-14T05:17:26.191Z,5
2017-09-14T05:19:26.584Z,5
2017-09-14T05:20:41.170Z,5
2017-09-14T05:21:26.635Z,5
2017-09-14T05:23:26.633Z,0
2017-09-14T05:24:26.634Z,0
2017-09-14T05:25:26.664Z,0
2017-09-14T05:26:55.947Z,0
2017-09-14T05:27:26.699Z,0
2017-09-14T05:29:41.373Z,0
2017-09-14T05:30:26.774Z,5
2017-09-14T05:31:41.118Z,5
2017-09-14T05:32:26.818Z,5
2017-09-14T05:33:26.846Z,5
2017-09-14T05:34:40.851Z,5
2017-09-14T05:35:26.883Z,5
2017-09-14T05:36:26.917Z,10
2017-09-14T05:37:26.929Z,10
2017-09-14T05:38:26.628Z,15
2017-09-14T05:39:26.687Z,15
2017-09-14T05:40:41.618Z,15
2017-09-14T05:41:41.653Z,15
2017-09-14T05:42:26.416Z,15
2017-09-14T05:43:27.051Z,15
2017-09-14T05:44:26.801Z,15
2017-09-14T05:45:26.788Z,15
2017-09-14T05:46:27.128Z,15
2017-09-14T05:47:27.146Z,15
2017-09-14T05:48:41.809Z,20
2017-09-14T05:49:41.809Z,20
2017-09-14T05:50:26.915Z,20
2017-09-14T05:51:27.240Z,20
2017-09-14T05:52:27.251Z,20
2017-09-14T05:53:27.279Z,20
2017-09-14T05:54:27.318Z,20
2017-09-14T05:55:27.339Z,20
2017-09-14T05:56:27.039Z,20
2017-09-14T05:57:41.988Z,25
2017-09-14T05:58:27.394Z,25
2017-09-14T05:59:27.423Z,25
2017-09-14T06:00:27.434Z,30
2017-09-14T06:01:27.443Z,30
2017-09-14T06:02:27.476Z,35
2017-09-14T06:04:27.511Z,40
2017-09-14T06:05:27.216Z,45
2017-09-14T06:06:26.945Z,45
2017-09-14T06:07:27.590Z,45
2017-09-14T06:08:27.313Z,45
2017-09-14T06:09:27.337Z,45
2017-09-14T06:10:27.342Z,45
2017-09-14T06:11:27.680Z,45
2017-09-14T06:12:27.695Z,40
2017-09-14T06:13:41.721Z,40
2017-09-14T06:14:42.358Z,35
2017-09-14T06:15:27.751Z,35
2017-09-14T06:16:27.766Z,35
2017-09-14T06:17:27.505Z,35
2017-09-14T06:18:27.508Z,35
2017-09-14T06:19:27.854Z,35
2017-09-14T06:20:27.861Z,35
2017-09-14T06:21:27.877Z,35
2017-09-14T06:22:27.921Z,35
2017-09-14T06:23:42.551Z,35
2017-09-14T06:24:27.960Z,35
2017-09-14T06:25:27.966Z,40
2017-09-14T06:26:28.021Z,40
2017-09-14T06:27:28.027Z,40
2017-09-14T06:28:27.426Z,45
2017-09-14T06:29:42.703Z,45
2017-09-14T06:30:27.484Z,45
2017-09-14T06:31:27.807Z,45
2017-09-14T06:33:27.849Z,60
2017-09-14T06:34:42.479Z,60
2017-09-14T06:35:27.902Z,55
2017-09-14T06:36:27.971Z,45
2017-09-14T06:37:42.871Z,45
2017-09-14T06:38:42.900Z,45
2017-09-14T06:39:42.594Z,45
2017-09-14T06:40:27.996Z,40
2017-09-14T06:41:28.035Z,35
2017-09-14T06:42:28.372Z,35
2017-09-14T06:43:43.004Z,35
2017-09-14T06:46:28.139Z,35
2017-09-14T06:48:28.175Z,40
2017-09-14T06:49:28.522Z,45
2017-09-14T06:50:42.543Z,45
2017-09-14T06:51:43.192Z,45
2017-09-14T06:52:28.582Z,50
2017-09-14T06:53:28.287Z,50
2017-09-14T06:54:28.628Z,55
2017-09-14T06:55:28.349Z,60
2017-09-14T06:56:28.655Z,70
2017-09-14T06:57:28.699Z,80
2017-09-14T06:58:28.719Z,90
2017-09-14T07:00:28.149Z,125
2017-09-14T07:01:43.425Z,135
2017-09-14T07:02:28.495Z,130
2017-09-14T07:03:28.821Z,130
2017-09-14T07:04:28.837Z,120
2017-09-14T07:05:28.869Z,115
2017-09-14T07:06:28.585Z,120
2017-09-14T07:07:28.926Z,115
2017-09-14T07:08:28.939Z,110
2017-09-14T07:09:28.961Z,100
2017-09-14T07:10:28.985Z,95
2017-09-14T07:11:28.994Z,95
2017-09-14T07:12:28.766Z,100
2017-09-14T07:13:29.086Z,100
2017-09-14T07:14:29.064Z,100
2017-09-14T07:15:43.704Z,105
2017-09-14T07:16:43.118Z,110
2017-09-14T07:17:43.763Z,110
2017-09-14T07:18:43.773Z,105
2017-09-14T07:19:29.174Z,105
2017-09-14T07:20:29.200Z,95
2017-09-14T07:21:28.926Z,85
2017-09-14T07:22:29.279Z,75
2017-09-14T07:23:29.272Z,75
2017-09-14T07:24:29.326Z,75
2017-09-14T07:25:28.715Z,70
2017-09-14T07:26:29.060Z,60
2017-09-14T07:27:29.368Z,55
2017-09-14T07:28:29.415Z,55
2017-09-14T07:29:29.402Z,55
2017-09-14T07:30:29.143Z,55
2017-09-14T07:31:29.457Z,60
2017-09-14T07:32:44.093Z,70
2017-09-14T07:33:29.500Z,75
2017-09-14T07:34:43.832Z,85
2017-09-14T07:35:29.571Z,95
2017-09-14T07:36:29.270Z,110
2017-09-14T07:37:43.926Z,120
2017-09-14T07:38:44.228Z,120
2017-09-14T07:39:43.657Z,115
2017-09-14T07:41:44.317Z,105
2017-09-14T07:42:29.725Z,105
2017-09-14T07:43:29.763Z,110
2017-09-14T07:45:29.789Z,105
2017-09-14T07:46:44.422Z,110
2017-09-14T07:47:44.452Z,125
2017-09-14T07:48:44.152Z,150
2017-09-14T07:49:44.482Z,155
2017-09-14T07:50:29.891Z,165
2017-09-14T07:51:44.534Z,185
2017-09-14T07:52:29.996Z,175
2017-09-14T07:53:29.647Z,160
2017-09-14T07:54:29.976Z,145
2017-09-14T07:55:30.002Z,140
2017-09-14T07:56:29.725Z,140
2017-09-14T07:57:44.668Z,145
2017-09-14T07:58:29.755Z,145
2017-09-14T07:59:29.790Z,140
2017-09-14T08:00:29.507Z,135
2017-09-14T08:02:30.195Z,115
2017-09-14T08:03:30.204Z,110
2017-09-14T08:04:44.842Z,105
2017-09-14T08:05:30.241Z,105
2017-09-14T08:06:29.955Z,110
2017-09-14T08:07:30.294Z,120
2017-09-14T08:09:30.354Z,145
2017-09-14T08:11:30.372Z,160
2017-09-14T08:12:30.093Z,160
2017-09-14T08:13:30.434Z,150
2017-09-14T08:14:30.463Z,140
2017-09-14T08:15:30.474Z,135
2017-09-14T08:16:30.492Z,125
2017-09-14T08:17:30.568Z,120
2017-09-14T08:18:30.235Z,120
2017-09-14T08:19:30.577Z,125
2017-09-14T08:20:59.823Z,130
2017-09-14T08:21:30.610Z,130
2017-09-14T08:22:30.651Z,130
2017-09-14T08:23:30.666Z,130
2017-09-14T08:24:45.296Z,130
2017-09-14T08:25:30.691Z,135
2017-09-14T08:26:30.735Z,135
2017-09-14T08:27:30.760Z,135
2017-09-14T08:28:30.779Z,135
2017-09-14T08:29:45.419Z,130
2017-09-14T08:30:30.516Z,130
2017-09-14T08:31:30.536Z,130
2017-09-14T08:32:30.549Z,140
2017-09-14T08:33:30.611Z,150
2017-09-14T08:35:30.935Z,170
2017-09-14T08:36:45.286Z,160
2017-09-14T08:37:30.991Z,155
2017-09-14T08:38:45.630Z,145
2017-09-14T08:39:31.022Z,145
2017-09-14T08:40:31.051Z,155
2017-09-14T08:41:31.075Z,150
2017-09-14T08:42:31.113Z,155
2017-09-14T08:43:31.137Z,170
2017-09-14T08:44:31.172Z,200
2017-09-14T08:45:30.877Z,220
2017-09-14T08:46:31.205Z,205
2017-09-14T08:47:30.967Z,195
2017-09-14T08:48:31.270Z,200
2017-09-14T08:49:30.646Z,210
2017-09-14T08:50:45.912Z,225
2017-09-14T08:51:45.934Z,225
2017-09-14T08:52:31.032Z,225
2017-09-14T08:53:31.046Z,220
2017-09-14T08:54:31.087Z,220
2017-09-14T08:55:31.095Z,195
2017-09-14T08:56:31.424Z,180
2017-09-14T08:57:46.090Z,170
2017-09-14T08:58:31.485Z,170
2017-09-14T08:59:31.193Z,165
2017-09-14T09:01:31.575Z,135
2017-09-14T09:02:46.195Z,120
2017-09-14T09:03:31.611Z,115
2017-09-14T09:04:31.630Z,115
2017-09-14T09:05:31.035Z,120
2017-09-14T09:06:31.048Z,125
2017-09-14T09:07:31.387Z,130
2017-09-14T09:09:31.756Z,140
2017-09-14T09:10:31.460Z,145
2017-09-14T09:11:31.183Z,155
2017-09-14T09:12:31.816Z,150
2017-09-14T09:13:31.850Z,150
2017-09-14T09:14:46.481Z,140
2017-09-14T09:15:31.897Z,140
2017-09-14T09:17:31.657Z,135
2017-09-14T09:18:31.643Z,135
2017-09-14T09:19:31.669Z,135
2017-09-14T09:20:31.714Z,135
2017-09-14T09:21:32.032Z,130
2017-09-14T09:22:32.059Z,125
2017-09-14T09:23:46.380Z,110
2017-09-14T09:24:31.806Z,105
2017-09-14T09:25:32.148Z,100
2017-09-14T09:26:46.765Z,100
2017-09-14T09:27:31.880Z,95
2017-09-14T09:28:32.187Z,95
2017-09-14T09:29:32.220Z,90
2017-09-14T09:30:31.945Z,85
2017-09-14T09:31:31.985Z,85
2017-09-14T09:32:32.287Z,85
2017-09-14T09:34:32.046Z,90
2017-09-14T09:35:32.375Z,95
2017-09-14T09:36:46.998Z,95
2017-09-14T09:37:32.103Z,105
2017-09-14T09:38:32.434Z,120
2017-09-14T09:39:46.496Z,135
2017-09-14T09:40:47.119Z,145
2017-09-14T09:41:32.505Z,150
2017-09-14T09:42:32.211Z,155
2017-09-14T09:43:32.234Z,150
2017-09-14T09:44:32.588Z,140
2017-09-14T09:45:31.974Z,125
2017-09-14T09:46:32.010Z,105
2017-09-14T09:47:32.034Z,90
2017-09-14T09:48:47.299Z,70
2017-09-14T09:49:32.403Z,65
2017-09-14T09:50:32.719Z,55
2017-09-14T09:51:32.750Z,50
2017-09-14T09:52:32.147Z,40
2017-09-14T09:53:32.492Z,35
2017-09-14T09:54:32.512Z,35
2017-09-14T09:56:01.454Z,40
2017-09-14T09:56:32.857Z,45
2017-09-14T09:57:32.877Z,50
2017-09-14T09:58:32.921Z,50
2017-09-14T09:59:32.923Z,55
2017-09-14T10:00:32.960Z,65
2017-09-14T10:01:32.665Z,75
2017-09-14T10:02:33.008Z,80
2017-09-14T10:03:33.037Z,85
2017-09-14T10:04:47.662Z,90
2017-09-14T10:05:47.696Z,90
2017-09-14T10:06:33.113Z,95
2017-09-14T10:07:33.152Z,90
2017-09-14T10:08:33.213Z,80
2017-09-14T10:09:32.855Z,80
2017-09-14T10:10:32.875Z,80
2017-09-14T10:11:47.532Z,75
2017-09-14T10:12:33.255Z,75
2017-09-14T10:13:32.945Z,70
2017-09-14T10:14:47.585Z,65
2017-09-14T10:15:33.009Z,60
2017-09-14T10:16:33.329Z,55
2017-09-14T10:17:33.365Z,50
2017-09-14T10:18:32.763Z,55
2017-09-14T10:20:33.418Z,65
2017-09-14T10:21:33.149Z,75
2017-09-14T10:22:33.475Z,75
2017-09-14T10:23:33.486Z,85
2017-09-14T10:24:48.138Z,90
2017-09-14T10:25:33.241Z,90
2017-09-14T10:26:48.195Z,95
2017-09-14T10:27:48.256Z,95
2017-09-14T10:28:32.986Z,95
2017-09-14T10:29:47.938Z,95
2017-09-14T10:31:33.678Z,95
2017-09-14T10:32:33.703Z,100
2017-09-14T10:33:33.422Z,105
2017-09-14T10:34:33.789Z,115
2017-09-14T10:35:33.771Z,130
2017-09-14T10:36:33.812Z,135
2017-09-14T10:37:33.830Z,135
2017-09-14T10:38:33.560Z,135
2017-09-14T10:39:48.171Z,125
2017-09-14T10:40:48.513Z,110
2017-09-14T10:41:33.930Z,95
2017-09-14T10:42:33.644Z,95
2017-09-14T10:43:48.280Z,95
2017-09-14T10:44:48.594Z,100
2017-09-14T10:45:33.708Z,105
2017-09-14T10:46:34.017Z,105
2017-09-14T10:47:48.665Z,110
2017-09-14T10:48:48.444Z,115
2017-09-14T10:49:34.091Z,125
2017-09-14T10:50:33.829Z,145
2017-09-14T10:51:34.141Z,170
2017-09-14T10:52:34.182Z,185
2017-09-14T10:53:33.582Z,190
2017-09-14T10:54:34.209Z,185
2017-09-14T10:55:33.631Z,180
2017-09-14T10:56:33.964Z,175
2017-09-14T10:57:34.281Z,175
2017-09-14T10:58:48.939Z,170
2017-09-14T10:59:34.357Z,165
2017-09-14T11:00:33.745Z,160
2017-09-14T11:01:34.410Z,145
2017-09-14T11:02:34.421Z,145
2017-09-14T11:03:49.043Z,140
2017-09-14T11:04:34.149Z,130
2017-09-14T11:05:34.180Z,125
2017-09-14T11:06:33.879Z,120
2017-09-14T11:07:34.218Z,110
2017-09-14T11:08:34.246Z,90
2017-09-14T11:09:34.273Z,55
2017-09-14T11:10:34.607Z,30
2017-09-14T11:11:34.311Z,30
2017-09-14T11:12:34.343Z,40
2017-09-14T11:13:34.677Z,50
2017-09-14T11:14:49.329Z,60
2017-09-14T11:16:34.482Z,80
2017-09-14T11:17:34.474Z,90
2017-09-14T11:18:34.544Z,90
2017-09-14T11:19:49.446Z,95
2017-09-14T11:20:34.531Z,110
2017-09-14T11:21:34.560Z,130
2017-09-14T11:22:49.514Z,140
2017-09-14T11:23:34.286Z,140
2017-09-14T11:24:34.940Z,140
2017-09-14T11:26:49.291Z,105
2017-09-14T11:27:34.708Z,85
2017-09-14T11:28:34.733Z,65
2017-09-14T11:29:49.364Z,65
2017-09-14T11:30:49.722Z,65
2017-09-14T11:31:35.108Z,60
2017-09-14T11:32:34.815Z,65
2017-09-14T11:33:34.868Z,75
2017-09-14T11:34:35.183Z,90
2017-09-14T11:35:34.889Z,95
2017-09-14T11:36:35.215Z,100
2017-09-14T11:37:34.629Z,90
2017-09-14T11:38:34.962Z,80
2017-09-14T11:39:49.902Z,65
2017-09-14T11:40:49.941Z,55
2017-09-14T11:41:35.344Z,55
2017-09-14T11:42:35.056Z,55
2017-09-14T11:43:49.991Z,50
2017-09-14T11:44:35.092Z,50
2017-09-14T11:45:35.430Z,45
2017-09-14T11:47:04.700Z,45
2017-09-14T11:47:35.177Z,45
2017-09-14T11:48:50.115Z,40
2017-09-14T11:49:35.525Z,45
2017-09-14T11:50:35.249Z,50
2017-09-14T11:51:50.188Z,55
2017-09-14T11:52:35.299Z,60
2017-09-14T11:53:35.307Z,60
2017-09-14T11:54:35.009Z,55
2017-09-14T11:55:35.352Z,60
2017-09-14T11:56:50.297Z,80
2017-09-14T11:57:50.340Z,105
2017-09-14T11:58:35.433Z,120
2017-09-14T11:59:35.448Z,140
2017-09-14T12:00:35.462Z,160
2017-09-14T12:01:50.448Z,155
2017-09-14T12:02:35.516Z,155
2017-09-14T12:03:35.539Z,155
2017-09-14T12:04:35.890Z,150
2017-09-14T12:05:35.875Z,155
2017-09-14T12:06:35.612Z,160
2017-09-14T12:07:35.627Z,170
2017-09-14T12:08:35.646Z,175
2017-09-14T12:09:50.604Z,175
2017-09-14T12:10:35.710Z,180
2017-09-14T12:11:50.345Z,195
2017-09-14T12:13:36.081Z,205
2017-09-14T12:15:35.832Z,210
2017-09-14T12:16:36.153Z,205
2017-09-14T12:17:35.875Z,195
2017-09-14T12:18:35.903Z,190
2017-09-14T12:19:50.526Z,180
2017-09-14T12:20:35.949Z,180
2017-09-14T12:21:36.319Z,175
2017-09-14T12:22:36.290Z,175
2017-09-14T12:27:36.412Z,185
2017-09-14T12:28:50.742Z,175
2017-09-14T12:29:36.478Z,190
2017-09-14T12:30:51.105Z,220
2017-09-14T12:31:36.527Z,195
2017-09-14T12:32:36.216Z,195
2017-09-14T12:33:51.186Z,190
2017-09-14T12:35:36.602Z,190
2017-09-14T12:36:36.658Z,220
2017-09-14T12:37:36.647Z,180
2017-09-14T12:38:36.370Z,160
2017-09-14T12:39:50.686Z,135
2017-09-14T12:40:36.415Z,115
2017-09-14T12:41:36.135Z,115
2017-09-14T12:42:36.460Z,125
2017-09-14T12:43:51.407Z,150
2017-09-14T12:44:51.120Z,145
2017-09-14T12:45:36.520Z,145
2017-09-14T12:46:51.509Z,130
2017-09-14T12:47:36.286Z,130
2017-09-14T12:48:36.671Z,145
2017-09-14T12:50:06.175Z,160
2017-09-14T12:50:36.356Z,165
2017-09-14T12:52:51.627Z,170
2017-09-14T12:53:37.019Z,170
2017-09-14T12:54:37.084Z,180
2017-09-14T12:55:37.072Z,175
2017-09-14T12:56:36.495Z,175
2017-09-14T12:57:36.518Z,175
2017-09-14T12:58:51.772Z,160
2017-09-14T12:59:36.870Z,150
2017-09-14T13:00:37.209Z,140
2017-09-14T13:01:36.604Z,135
2017-09-14T13:02:36.645Z,160
2017-09-14T13:03:51.890Z,155
2017-09-14T13:04:36.989Z,195
2017-09-14T13:05:51.637Z,180
2017-09-14T13:06:37.352Z,175
2017-09-14T13:07:37.072Z,140
2017-09-14T13:09:37.436Z,125
2017-09-14T13:10:52.048Z,115
2017-09-14T13:11:37.176Z,120
2017-09-14T13:12:37.194Z,140
2017-09-14T13:13:37.214Z,140
2017-09-14T13:14:52.153Z,150
2017-09-14T13:15:37.260Z,210
2017-09-14T13:16:37.593Z,205
2017-09-14T13:17:37.621Z,140
2017-09-14T13:18:37.335Z,130
2017-09-14T13:19:37.361Z,120
2017-09-14T13:20:37.376Z,125
2017-09-14T13:21:52.338Z,130
2017-09-14T13:22:52.033Z,120
2017-09-14T13:23:37.771Z,120
2017-09-14T13:24:37.170Z,115
2017-09-14T13:25:37.496Z,105
2017-09-14T13:26:37.514Z,105
2017-09-14T13:27:37.236Z,120
2017-09-14T13:28:37.574Z,120
2017-09-14T13:29:37.600Z,125
2017-09-14T13:30:37.933Z,125
2017-09-14T13:31:37.966Z,130
2017-09-14T13:32:37.666Z,125
2017-09-14T13:33:38.023Z,185
2017-09-14T13:34:38.042Z,185
2017-09-14T13:36:52.385Z,135
2017-09-14T13:37:37.484Z,135
2017-09-14T13:38:37.494Z,140
2017-09-14T13:39:37.834Z,140
2017-09-14T13:40:37.544Z,145
2017-09-14T13:41:52.496Z,120
2017-09-14T13:42:52.823Z,125
2017-09-14T13:43:37.628Z,190
2017-09-14T13:44:37.626Z,165
2017-09-14T13:45:37.652Z,135
2017-09-14T13:46:52.628Z,130
2017-09-14T13:47:37.709Z,110
2017-09-14T13:48:38.044Z,110
2017-09-14T13:49:37.759Z,110
2017-09-14T13:50:38.417Z,110
2017-09-14T13:51:38.112Z,110
2017-09-14T13:52:38.158Z,125
2017-09-14T13:53:38.168Z,125
2017-09-14T13:54:38.191Z,190
2017-09-14T13:56:38.569Z,125
2017-09-14T13:57:38.562Z,120
2017-09-14T13:58:38.283Z,120
2017-09-14T13:59:38.317Z,140
2017-09-14T14:00:53.258Z,130
2017-09-14T14:01:52.976Z,120
2017-09-14T14:02:38.696Z,115
2017-09-14T14:03:53.019Z,110
2017-09-14T14:04:38.746Z,165
2017-09-14T14:05:38.757Z,110
2017-09-14T14:06:38.467Z,105
2017-09-14T14:07:38.807Z,110
2017-09-14T14:08:53.154Z,120
2017-09-14T14:09:53.475Z,130
2017-09-14T14:10:37.946Z,125
2017-09-14T14:11:38.596Z,120
2017-09-14T14:12:38.930Z,145
2017-09-14T14:13:38.953Z,120
2017-09-14T14:14:53.299Z,125
2017-09-14T14:15:39.010Z,160
2017-09-14T14:16:39.013Z,120
2017-09-14T14:17:53.356Z,135
2017-09-14T14:18:39.068Z,120
2017-09-14T14:19:39.092Z,115
2017-09-14T14:20:38.819Z,115
2017-09-14T14:21:39.130Z,115
2017-09-14T14:22:38.873Z,115
2017-09-14T14:23:38.873Z,105
2017-09-14T14:24:53.528Z,100
2017-09-14T14:25:53.854Z,95
2017-09-14T14:28:39.317Z,95
2017-09-14T14:29:38.720Z,95
2017-09-14T14:30:38.419Z,100
2017-09-14T14:31:39.072Z,100
2017-09-14T14:32:54.027Z,105
2017-09-14T14:33:39.116Z,110
2017-09-14T14:34:53.773Z,150
2017-09-14T14:35:39.176Z,150
2017-09-14T14:36:39.490Z,175
2017-09-14T14:37:39.260Z,140
2017-09-14T14:38:39.234Z,155
2017-09-14T14:39:54.186Z,125
2017-09-14T14:40:53.586Z,145
2017-09-14T14:42:39.331Z,115
2017-09-14T14:43:39.039Z,145
2017-09-14T14:44:39.375Z,110
2017-09-14T14:45:39.104Z,105
2017-09-14T14:46:39.116Z,105
2017-09-14T14:47:39.146Z,105
2017-09-14T14:48:54.399Z,105
2017-09-14T14:49:39.498Z,95
2017-09-14T14:50:39.528Z,95
2017-09-14T14:51:39.231Z,90
2017-09-14T14:52:39.592Z,85
2017-09-14T14:53:39.908Z,85
2017-09-14T14:54:39.317Z,95
2017-09-14T14:55:39.645Z,90
2017-09-14T14:56:54.286Z,90
2017-09-14T14:57:54.312Z,90
2017-09-14T14:58:40.033Z,85
2017-09-14T14:59:39.424Z,80
2017-09-14T15:00:39.764Z,80
2017-09-14T15:03:54.469Z,70
2017-09-14T15:04:39.865Z,60
2017-09-14T15:05:40.206Z,55
2017-09-14T15:07:39.923Z,55
2017-09-14T15:08:40.261Z,60
2017-09-14T15:09:40.273Z,65
2017-09-14T15:10:40.320Z,75
2017-09-14T15:11:54.954Z,75
2017-09-14T15:12:39.423Z,70
2017-09-14T15:13:40.409Z,65
2017-09-14T15:15:39.805Z,55
2017-09-14T15:16:40.457Z,45
2017-09-14T15:17:55.110Z,35
2017-09-14T15:18:40.191Z,30
2017-09-14T15:19:54.511Z,15
2017-09-14T15:20:40.547Z,10
2017-09-14T15:21:40.566Z,5
2017-09-14T15:22:54.901Z,5